Time;durP1;ratioP1;P1;durP2;ratioP2;P2;SDS_P1;SDS_P2;PMS_P1;PMS_P2;Temp;Humidity;BMP_temperature;BMP_pressure;BME280_temperature;BME280_humidity;BME280_pressure;Samples;Min_cycle;Max_cycle;Signal;HPM_P1;HPM_P2
2022/12/05 08:47:06;;;;;;;115.18;84.32;;;8.80;99.90;;;;;;5159492;27;20583;-61
2022/12/05 08:49:31;;;;;;;107.57;81.75;;;9.40;99.90;;;;;;5138575;27;20024;-66
2022/12/05 08:51:57;;;;;;;94.22;70.40;;;9.70;99.90;;;;;;5140979;27;20026;-64
2022/12/05 08:54:23;;;;;;;82.30;63.30;;;9.90;99.90;;;;;;5144284;27;20023;-64
2022/12/05 08:56:52;;;;;;;77.68;60.58;;;10.10;99.90;;;;;;5137264;27;20054;-64
2022/12/05 08:59:18;;;;;;;70.97;54.50;;;10.30;99.90;;;;;;5146991;27;20030;-62
2022/12/05 09:01:44;;;;;;;64.35;51.78;;;10.60;99.90;;;;;;5129299;27;20051;-64
2022/12/05 09:04:11;;;;;;;56.40;46.90;;;11.00;99.90;;;;;;5128553;27;20092;-62
2022/12/05 09:06:38;;;;;;;49.60;41.90;;;11.20;99.90;;;;;;5149018;27;20031;-62
2022/12/05 09:09:08;;;;;;;51.53;43.03;;;11.60;99.90;;;;;;5147541;27;20498;-63
2022/12/05 09:11:36;;;;;;;48.90;41.00;;;11.80;99.90;;;;;;5143517;27;20027;-66
2022/12/05 09:14:04;;;;;;;45.08;38.28;;;11.90;99.90;;;;;;5136017;27;20096;-63
2022/12/05 09:16:33;;;;;;;42.67;35.95;;;12.00;99.90;;;;;;5145680;27;20033;-65
2022/12/05 09:18:59;;;;;;;44.28;37.47;;;12.10;99.90;;;;;;5145036;27;20019;-64
2022/12/05 09:21:27;;;;;;;41.70;36.42;;;12.20;99.90;;;;;;5133562;27;20419;-65
2022/12/05 09:23:55;;;;;;;67.28;53.22;;;12.70;99.90;;;;;;5121014;28;20343;-65
2022/12/05 09:26:23;;;;;;;65.07;54.75;;;12.90;99.90;;;;;;5119455;28;20038;-64
2022/12/05 09:28:49;;;;;;;73.90;60.05;;;13.10;99.90;;;;;;5126052;28;20124;-67
2022/12/05 09:31:18;;;;;;;76.03;63.70;;;13.50;99.90;;;;;;5122649;27;20516;-65
2022/12/05 09:33:44;;;;;;;82.57;63.80;;;13.60;99.90;;;;;;5124055;28;20076;-64
2022/12/05 09:36:18;;;;;;;70.60;59.22;;;13.80;99.90;;;;;;5122379;28;20485;-67
2022/12/05 09:38:45;;;;;;;63.63;54.05;;;13.80;99.90;;;;;;5117489;27;20027;-64
2022/12/05 09:42:03;;;;;;;68.20;53.58;;;13.70;99.90;;;;;;5118603;28;20050;-64
2022/12/05 09:44:14;;;;;;;82.45;67.93;;;13.80;99.90;;;;;;5117289;28;20495;-63
2022/12/05 09:47:13;;;;;;;87.38;73.10;;;14.10;99.90;;;;;;5113971;28;20065;-65
2022/12/05 09:49:47;;;;;;;91.63;76.00;;;14.10;99.90;;;;;;5119137;28;20012;-63
2022/12/05 09:52:24;;;;;;;99.93;83.78;;;14.20;99.90;;;;;;5125077;27;20102;-65
2022/12/05 09:54:52;;;;;;;101.20;84.97;;;14.20;99.90;;;;;;5126324;27;20565;-67
2022/12/05 09:57:26;;;;;;;100.15;86.55;;;14.30;99.90;;;;;;5118857;27;20038;-66
2022/12/05 09:59:53;;;;;;;100.88;89.68;;;14.60;99.90;;;;;;5100324;28;20055;-65
2022/12/05 10:02:31;;;;;;;125.18;100.95;;;15.00;99.90;;;;;;5097017;28;20026;-66
2022/12/05 10:05:14;;;;;;;113.18;96.32;;;15.50;99.90;;;;;;5111015;28;20500;-66
2022/12/05 10:07:54;;;;;;;96.65;85.88;;;15.90;99.90;;;;;;5108796;28;20123;-66
2022/12/05 10:10:38;;;;;;;91.07;80.97;;;16.30;98.50;;;;;;5111647;28;20028;-66
2022/12/05 10:13:37;;;;;;;96.40;84.60;;;16.60;97.80;;;;;;5113066;28;20024;-64
2022/12/05 10:16:09;;;;;;;102.45;90.35;;;16.90;96.60;;;;;;5113214;28;20020;-65
2022/12/05 10:18:40;;;;;;;108.78;91.75;;;16.90;91.70;;;;;;5114179;28;20403;-67
2022/12/05 10:21:31;;;;;;;97.55;87.35;;;16.80;93.30;;;;;;5114989;28;20106;-67
2022/12/05 10:24:00;;;;;;;103.63;90.25;;;16.80;92.30;;;;;;5113485;28;20027;-65
2022/12/05 10:26:32;;;;;;;108.28;96.63;;;17.10;93.30;;;;;;5102751;28;20550;-65
2022/12/05 10:29:16;;;;;;;110.43;97.68;;;17.30;92.40;;;;;;5097957;27;20040;-65
2022/12/05 10:31:44;;;;;;;98.60;87.93;;;17.50;91.30;;;;;;5095087;28;20024;-63
2022/12/05 10:34:17;;;;;;;94.38;84.18;;;17.70;90.50;;;;;;5094492;28;20016;-63
2022/12/05 10:37:09;;;;;;;92.63;82.80;;;17.70;88.40;;;;;;5095248;28;20028;-62
2022/12/05 10:39:36;;;;;;;97.55;86.75;;;17.60;88.00;;;;;;5085110;28;20031;-63
2022/12/05 10:42:02;;;;;;;90.45;80.95;;;17.50;87.00;;;;;;5095483;28;20055;-66
2022/12/05 10:44:28;;;;;;;93.65;83.75;;;17.40;87.70;;;;;;5111873;28;20644;-66
2022/12/05 10:46:54;;;;;;;95.90;85.57;;;17.20;88.50;;;;;;5098451;28;20058;-67
2022/12/05 10:49:21;;;;;;;100.95;89.95;;;17.10;89.80;;;;;;5094101;28;20493;-66
2022/12/05 10:51:47;;;;;;;100.10;89.10;;;17.00;88.10;;;;;;5093235;28;20653;-68
2022/12/05 10:54:19;;;;;;;91.32;81.50;;;16.70;90.40;;;;;;5099700;28;20436;-65
2022/12/05 10:56:50;;;;;;;84.85;75.60;;;16.90;94.80;;;;;;5103444;28;20034;-66
2022/12/05 10:59:20;;;;;;;77.05;68.85;;;17.10;92.10;;;;;;5099659;28;20026;-70
2022/12/05 11:01:54;;;;;;;74.78;66.88;;;17.10;92.40;;;;;;5096986;28;20089;-65
2022/12/05 11:04:43;;;;;;;73.75;65.72;;;17.10;92.30;;;;;;5093044;28;20020;-66
2022/12/05 11:07:23;;;;;;;67.45;59.60;;;17.00;91.00;;;;;;5095012;28;20433;-68
2022/12/05 11:09:50;;;;;;;64.65;56.95;;;16.80;94.30;;;;;;5106276;28;20396;-64
2022/12/05 11:12:42;;;;;;;61.30;54.97;;;16.80;95.50;;;;;;5103284;28;20028;-64
2022/12/05 11:15:18;;;;;;;65.95;58.83;;;16.70;95.70;;;;;;5093934;28;20038;-64
2022/12/05 11:17:45;;;;;;;62.63;55.83;;;16.70;96.80;;;;;;5094609;28;20027;-64
2022/12/05 11:20:16;;;;;;;59.70;53.45;;;16.60;98.70;;;;;;5094656;28;20381;-68
2022/12/05 11:22:44;;;;;;;57.83;51.63;;;16.50;98.20;;;;;;5094316;28;20031;-66
2022/12/05 11:25:29;;;;;;;63.90;55.05;;;16.50;98.20;;;;;;5093239;28;20106;-64
2022/12/05 11:28:00;;;;;;;59.22;52.85;;;16.60;99.40;;;;;;5106341;28;20403;-65
2022/12/05 11:30:28;;;;;;;64.60;54.55;;;16.90;98.60;;;;;;5113936;28;20512;-66
2022/12/05 11:33:19;;;;;;;58.08;51.67;;;17.30;98.70;;;;;;5113747;28;20026;-65
2022/12/05 11:35:47;;;;;;;55.60;49.75;;;17.60;94.50;;;;;;5112696;27;20020;-70
2022/12/05 11:38:16;;;;;;;52.95;47.38;;;17.90;93.90;;;;;;5112310;28;20105;-67
2022/12/05 11:41:12;;;;;;;61.08;54.50;;;18.10;94.80;;;;;;5112807;28;20095;-65
2022/12/05 11:43:59;;;;;;;61.13;54.72;;;18.20;92.20;;;;;;5113289;28;20026;-65
2022/12/05 11:46:44;;;;;;;67.00;59.78;;;18.20;92.60;;;;;;5113365;28;20046;-65
2022/12/05 11:49:49;;;;;;;61.55;55.10;;;18.20;91.00;;;;;;5113211;28;20413;-65
2022/12/05 11:52:20;;;;;;;;;;;18.30;91.60;;;;;;5050812;28;20029;-64
2022/12/05 11:55:21;;;;;;;60.63;54.03;;;18.50;91.50;;;;;;5032974;28;19909;-63
2022/12/05 11:58:04;;;;;;;53.33;47.85;;;18.80;92.60;;;;;;5083684;28;20032;-64
2022/12/05 12:00:30;;;;;;;;;;;18.80;88.90;;;;;;5114376;28;20024;-63
2022/12/05 12:03:32;;;;;;;51.83;46.40;;;18.60;88.90;;;;;;5114024;28;19911;-65
2022/12/05 12:06:19;;;;;;;48.72;43.72;;;18.50;88.40;;;;;;5095178;28;20485;-63
2022/12/05 12:09:04;;;;;;;48.13;43.28;;;18.40;89.00;;;;;;5093524;28;20123;-64
2022/12/05 12:11:36;;;;;;;54.67;48.95;;;18.50;89.70;;;;;;5093260;28;20028;-66
2022/12/05 12:14:05;;;;;;;54.05;48.72;;;18.40;89.20;;;;;;5093414;28;20020;-65
2022/12/05 12:17:03;;;;;;;58.30;50.15;;;18.40;88.80;;;;;;5093135;28;20100;-63
2022/12/05 12:19:52;;;;;;;55.65;50.05;;;18.30;87.50;;;;;;5101191;28;20034;-63
2022/12/05 12:22:24;;;;;;;50.88;45.67;;;18.10;89.60;;;;;;5098392;28;20107;-62
2022/12/05 12:25:28;;;;;;;58.00;51.90;;;18.10;91.40;;;;;;5103704;28;20500;-66
2022/12/05 12:28:05;;;;;;;58.38;52.00;;;18.10;92.70;;;;;;5081644;28;20076;-62
2022/12/05 12:31:12;;;;;;;52.55;47.22;;;18.20;92.30;;;;;;5111672;28;20042;-63
2022/12/05 12:33:45;;;;;;;53.67;48.28;;;18.40;94.30;;;;;;5047405;28;20447;-62
2022/12/05 12:36:26;;;;;;;52.55;47.13;;;18.60;94.00;;;;;;5113902;28;20028;-62
2022/12/05 12:38:57;;;;;;;55.35;49.72;;;18.70;92.40;;;;;;5113673;28;20023;-62
2022/12/05 12:41:45;;;;;;;51.75;46.45;;;18.80;92.90;;;;;;5112575;28;20020;-62
2022/12/05 12:44:39;;;;;;;45.85;41.22;;;18.80;91.40;;;;;;5113059;28;20023;-62
2022/12/05 12:47:24;;;;;;;49.25;44.28;;;18.80;91.50;;;;;;5107605;28;20122;-62
2022/12/05 12:50:23;;;;;;;55.05;49.35;;;18.70;91.20;;;;;;5108042;28;20028;-62
2022/12/05 12:53:21;;;;;;;53.75;48.22;;;18.60;91.00;;;;;;5077396;28;20089;-62
2022/12/05 12:56:18;;;;;;;57.13;51.15;;;18.60;91.20;;;;;;5085737;28;20484;-64
2022/12/05 12:59:02;;;;;;;55.22;49.53;;;18.50;91.90;;;;;;5111542;28;20383;-64
2022/12/05 13:01:28;;;;;;;;;;;18.40;91.90;;;;;;5110695;28;20024;-64
2022/12/05 13:04:03;;;;;;;56.13;50.17;;;18.30;91.20;;;;;;5111649;28;19908;-64
2022/12/05 13:06:42;;;;;;;60.85;53.85;;;18.20;92.20;;;;;;5111234;28;20051;-64
2022/12/05 13:09:22;;;;;;;54.42;48.83;;;18.10;92.70;;;;;;5112501;28;20043;-64
2022/12/05 13:11:49;;;;;;;54.42;48.78;;;18.00;94.00;;;;;;5111987;28;20415;-64
2022/12/05 13:14:19;;;;;;;52.95;47.55;;;17.90;95.10;;;;;;5112112;28;20452;-64
2022/12/05 13:16:49;;;;;;;51.20;46.13;;;17.90;95.70;;;;;;5111737;28;20073;-64
2022/12/05 13:19:36;;;;;;;48.42;43.50;;;17.90;96.10;;;;;;5113439;28;20024;-64
2022/12/05 13:22:04;;;;;;;47.72;42.70;;;17.90;96.90;;;;;;5112552;28;20019;-64
2022/12/05 13:24:30;;;;;;;46.45;41.50;;;17.90;97.40;;;;;;5111592;28;20471;-64
2022/12/05 13:27:04;;;;;;;47.78;42.55;;;18.10;97.50;;;;;;5111479;28;20035;-64
2022/12/05 13:29:40;;;;;;;50.60;44.55;;;18.30;98.40;;;;;;5110845;28;20020;-64
2022/12/05 13:32:22;;;;;;;55.45;49.55;;;18.60;98.90;;;;;;5112626;28;20023;-64
2022/12/05 13:34:49;;;;;;;68.47;57.42;;;18.60;95.20;;;;;;5115638;28;20019;-64
2022/12/05 13:43:07;;;;;;;44.65;40.22;;;18.80;91.30;;;;;;5116048;28;20023;-63
2022/12/05 13:45:33;;;;;;;56.47;50.33;;;18.90;89.80;;;;;;5115898;28;20108;-65
2022/12/05 13:47:59;;;;;;;51.60;46.20;;;18.90;91.50;;;;;;5116101;28;20423;-65
2022/12/05 13:50:33;;;;;;;49.70;43.50;;;19.00;92.50;;;;;;5115958;28;20026;-64
2022/12/05 13:53:36;;;;;;;65.00;57.65;;;19.00;91.50;;;;;;5116363;28;20032;-65
2022/12/05 13:56:14;;;;;;;180.48;159.48;;;19.00;92.50;;;;;;5116584;28;20047;-64
2022/12/05 13:58:45;;;;;;;162.75;145.68;;;18.50;97.10;;;;;;5116509;28;20477;-65
2022/12/05 14:01:26;;;;;;;140.25;125.35;;;18.30;98.70;;;;;;5115666;28;20020;-65
2022/12/05 14:03:59;;;;;;;140.80;125.18;;;18.00;99.90;;;;;;5114419;28;20055;-64
2022/12/05 14:06:39;;;;;;;138.43;124.00;;;17.90;99.90;;;;;;5115657;28;20032;-65
2022/12/05 14:09:16;;;;;;;99.82;89.50;;;17.70;99.90;;;;;;5116507;28;20024;-65
2022/12/05 14:12:11;;;;;;;109.38;97.68;;;17.40;99.90;;;;;;5116086;28;20031;-65
2022/12/05 14:14:55;;;;;;;131.35;117.65;;;17.40;99.90;;;;;;5116289;28;20055;-65
2022/12/05 14:17:40;;;;;;;121.85;109.10;;;17.20;99.90;;;;;;5115324;28;20027;-65
2022/12/05 14:20:54;;;;;;;92.85;83.38;;;17.20;99.90;;;;;;5114841;28;20561;-65
2022/12/05 14:23:38;;;;;;;138.63;123.80;;;17.20;99.90;;;;;;5101442;28;20146;-65
2022/12/05 14:26:07;;;;;;;110.85;99.18;;;17.20;99.90;;;;;;5114842;28;20089;-65
2022/12/05 14:29:02;;;;;;;117.22;105.10;;;16.90;99.90;;;;;;5115115;28;20161;-65
2022/12/05 14:32:09;;;;;;;76.90;69.45;;;16.70;99.90;;;;;;5115243;28;20098;-64
2022/12/05 14:34:46;;;;;;;52.88;47.42;;;16.50;99.90;;;;;;5116085;28;20015;-65
2022/12/05 14:37:15;;;;;;;51.38;46.05;;;16.50;99.90;;;;;;5115681;28;20477;-65
2022/12/05 14:39:42;;;;;;;98.75;74.88;;;16.30;99.90;;;;;;5115874;28;20049;-65
2022/12/05 14:42:39;;;;;;;91.57;71.15;;;16.20;99.90;;;;;;5115659;28;20070;-64
2022/12/05 14:45:26;;;;;;;45.75;40.17;;;15.90;99.90;;;;;;5115772;28;20105;-65
2022/12/05 14:47:58;;;;;;;36.53;30.35;;;15.60;99.90;;;;;;5115883;28;20024;-65
2022/12/05 14:50:33;;;;;;;60.38;48.55;;;15.30;99.90;;;;;;5115744;28;20473;-65
2022/12/05 14:53:14;;;;;;;67.70;55.97;;;15.20;99.90;;;;;;5115474;28;20106;-65
2022/12/05 14:55:44;;;;;;;88.65;68.03;;;15.10;99.90;;;;;;5115625;28;20053;-64
2022/12/05 14:58:29;;;;;;;114.45;93.70;;;15.20;99.90;;;;;;5115609;28;20020;-65
2022/12/05 15:01:04;;;;;;;88.07;76.40;;;15.20;99.90;;;;;;5115497;28;20102;-64
2022/12/05 15:03:34;;;;;;;71.20;61.83;;;15.20;99.90;;;;;;5115736;28;20020;-64
2022/12/05 15:06:02;;;;;;;61.33;52.05;;;15.20;99.90;;;;;;5115310;28;20024;-65
2022/12/05 15:08:32;;;;;;;67.82;54.17;;;15.40;99.90;;;;;;5115286;28;20027;-65
2022/12/05 15:10:57;;;;;;;68.70;53.83;;;15.30;99.90;;;;;;5115391;28;20034;-65
2022/12/05 15:13:29;;;;;;;70.80;57.97;;;15.30;99.90;;;;;;5115297;28;20095;-65
2022/12/05 15:16:12;;;;;;;66.75;55.78;;;15.20;99.90;;;;;;5115120;28;20031;-65
2022/12/05 15:18:50;;;;;;;56.85;50.47;;;15.30;99.90;;;;;;5115180;28;20030;-65
2022/12/05 15:21:21;;;;;;;69.50;57.55;;;15.20;99.90;;;;;;5114848;28;20026;-65
2022/12/05 15:23:54;;;;;;;64.78;54.50;;;15.10;99.90;;;;;;5114972;28;20508;-65
2022/12/05 15:26:43;;;;;;;60.35;49.03;;;15.00;99.90;;;;;;5114859;28;20103;-65
2022/12/05 15:29:22;;;;;;;85.65;67.07;;;14.90;99.90;;;;;;5115217;28;20042;-65
2022/12/05 15:31:53;;;;;;;102.40;80.93;;;14.80;99.90;;;;;;5115202;28;20024;-64
2022/12/05 15:34:30;;;;;;;100.47;78.88;;;14.60;99.90;;;;;;5114934;28;20019;-65
2022/12/05 15:37:07;;;;;;;103.38;81.07;;;14.60;99.90;;;;;;5114551;28;20449;-65
2022/12/05 15:39:54;;;;;;;116.80;88.63;;;14.60;99.90;;;;;;5114769;28;20034;-65
2022/12/05 15:42:34;;;;;;;135.40;109.45;;;14.60;99.90;;;;;;5114848;28;20024;-65
2022/12/05 15:45:12;;;;;;;104.80;88.50;;;14.50;99.90;;;;;;5114415;27;20035;-65
2022/12/05 15:47:38;;;;;;;96.88;79.97;;;14.50;99.90;;;;;;5114736;28;20024;-65
2022/12/05 15:50:05;;;;;;;86.15;73.88;;;14.50;99.90;;;;;;5114488;28;20020;-65
2022/12/05 15:52:47;;;;;;;91.07;76.07;;;14.60;99.90;;;;;;5114727;28;20424;-65
2022/12/05 15:55:22;;;;;;;115.05;92.97;;;14.70;99.90;;;;;;5113946;28;20043;-65
2022/12/05 15:58:02;;;;;;;79.22;64.00;;;14.70;99.90;;;;;;5114302;28;20024;-65
2022/12/05 16:00:29;;;;;;;84.13;68.93;;;14.60;99.90;;;;;;5114342;28;20027;-65
2022/12/05 16:03:19;;;;;;;74.78;61.33;;;14.70;99.90;;;;;;5114393;28;20051;-65
2022/12/05 16:05:54;;;;;;;71.43;59.13;;;14.60;99.90;;;;;;5114138;28;20036;-65
2022/12/05 16:08:23;;;;;;;70.45;56.13;;;14.60;99.90;;;;;;5114206;28;20056;-65
2022/12/05 16:10:49;;;;;;;85.25;69.78;;;14.60;99.90;;;;;;5114166;28;20052;-65
2022/12/05 16:13:16;;;;;;;99.95;81.53;;;14.60;99.90;;;;;;5114259;28;20031;-65
2022/12/05 16:15:46;;;;;;;89.57;71.80;;;14.50;99.90;;;;;;5114050;28;20030;-65
2022/12/05 16:18:25;;;;;;;83.70;65.65;;;14.30;99.90;;;;;;5113846;28;20121;-64
2022/12/05 16:20:51;;;;;;;79.95;65.00;;;14.30;99.90;;;;;;5113934;28;20031;-65
2022/12/05 16:23:28;;;;;;;88.25;69.13;;;14.20;99.90;;;;;;5113831;28;20023;-66
2022/12/05 16:26:19;;;;;;;91.40;69.20;;;14.20;99.90;;;;;;5113938;28;20049;-65
2022/12/05 16:28:57;;;;;;;86.18;69.57;;;14.10;99.90;;;;;;5105067;28;20035;-64
2022/12/05 16:31:23;;;;;;;93.35;71.65;;;14.00;99.90;;;;;;5113858;28;20068;-65
2022/12/05 16:34:02;;;;;;;86.15;69.43;;;14.00;99.90;;;;;;5113471;28;20028;-65
2022/12/05 16:36:28;;;;;;;111.82;88.53;;;13.90;99.90;;;;;;5113826;28;20427;-65
2022/12/05 16:39:06;;;;;;;97.90;76.35;;;13.90;99.90;;;;;;5113737;28;20045;-65
2022/12/05 16:41:36;;;;;;;122.50;95.45;;;13.80;99.90;;;;;;5113816;28;20027;-65
2022/12/05 16:44:03;;;;;;;108.28;87.28;;;13.80;99.90;;;;;;5113767;28;20020;-65
2022/12/05 16:46:38;;;;;;;102.20;78.03;;;13.70;99.90;;;;;;5113309;28;20040;-65
2022/12/05 16:49:20;;;;;;;99.13;78.68;;;13.70;99.90;;;;;;5113426;28;20024;-65
2022/12/05 16:52:11;;;;;;;84.85;67.55;;;13.70;99.90;;;;;;5113599;28;20496;-65
2022/12/05 16:54:37;;;;;;;86.97;69.78;;;13.70;99.90;;;;;;5113591;28;20020;-65
2022/12/05 16:57:03;;;;;;;84.35;66.78;;;13.60;99.90;;;;;;5113641;28;20033;-65
2022/12/05 16:59:37;;;;;;;106.30;78.28;;;13.60;99.90;;;;;;5113924;28;20413;-65
2022/12/05 17:02:09;;;;;;;114.15;79.78;;;13.60;99.90;;;;;;5113387;28;20031;-65
2022/12/05 17:04:34;;;;;;;109.03;72.63;;;13.50;99.90;;;;;;5113701;28;20035;-65
2022/12/05 17:07:00;;;;;;;124.63;82.93;;;13.50;99.90;;;;;;5114277;28;20024;-65
2022/12/05 17:09:26;;;;;;;127.70;84.18;;;13.50;99.90;;;;;;5117601;28;20031;-65
2022/12/05 17:11:56;;;;;;;104.72;73.40;;;13.50;99.90;;;;;;5118125;28;20097;-65
2022/12/05 17:14:21;;;;;;;103.93;76.05;;;13.40;99.90;;;;;;5117595;28;20376;-65
2022/12/05 17:16:47;;;;;;;87.85;63.20;;;13.40;99.90;;;;;;5117233;28;20024;-65
2022/12/05 17:19:13;;;;;;;92.18;66.43;;;13.40;99.90;;;;;;5117459;28;20030;-65
2022/12/05 17:21:41;;;;;;;86.38;61.13;;;13.40;99.90;;;;;;5117414;28;20437;-65
2022/12/05 17:24:14;;;;;;;79.78;57.00;;;13.30;99.90;;;;;;5117147;28;20020;-65
2022/12/05 17:26:40;;;;;;;85.30;59.10;;;13.40;99.90;;;;;;5117130;28;20031;-65
2022/12/05 17:29:07;;;;;;;88.43;62.22;;;13.40;99.90;;;;;;5117103;28;20075;-65
2022/12/05 17:31:33;;;;;;;94.93;66.75;;;13.40;99.90;;;;;;5116886;28;20023;-64
2022/12/05 17:33:59;;;;;;;87.43;65.55;;;13.30;99.90;;;;;;5117101;28;20023;-66
2022/12/05 17:36:24;;;;;;;106.88;78.80;;;13.30;99.90;;;;;;5117197;28;20028;-66
2022/12/05 17:38:50;;;;;;;134.90;92.07;;;13.10;99.90;;;;;;5117072;28;20027;-65
2022/12/05 17:41:23;;;;;;;148.82;106.30;;;12.90;99.90;;;;;;5117154;28;20027;-65
2022/12/05 17:43:50;;;;;;;180.45;121.45;;;12.90;99.90;;;;;;5117023;28;20077;-65
2022/12/05 17:46:18;;;;;;;134.77;99.03;;;12.70;99.90;;;;;;5116457;28;20052;-65
2022/12/05 17:48:45;;;;;;;115.53;82.60;;;12.50;99.90;;;;;;5116896;28;20019;-65
2022/12/05 17:51:13;;;;;;;82.63;63.75;;;12.40;99.90;;;;;;5116841;28;20072;-64
2022/12/05 17:53:39;;;;;;;97.68;74.20;;;12.30;99.90;;;;;;5116754;28;20027;-65
2022/12/05 17:56:05;;;;;;;99.82;78.28;;;12.10;99.90;;;;;;5116823;28;20076;-65
2022/12/05 17:58:31;;;;;;;113.18;86.00;;;11.90;99.90;;;;;;5116815;28;20019;-65
2022/12/05 18:00:57;;;;;;;115.00;83.07;;;11.70;99.90;;;;;;5116627;28;20035;-65
2022/12/05 18:03:23;;;;;;;124.22;92.90;;;11.70;99.90;;;;;;5116695;28;20023;-65
2022/12/05 18:05:49;;;;;;;156.85;108.38;;;11.70;99.90;;;;;;5116574;28;20500;-65
2022/12/05 18:08:18;;;;;;;106.57;80.35;;;11.70;99.90;;;;;;5116538;28;20377;-66
2022/12/05 18:10:46;;;;;;;111.10;81.80;;;11.70;99.90;;;;;;5116439;28;20035;-65
2022/12/05 18:13:12;;;;;;;204.20;138.60;;;11.80;99.90;;;;;;5116438;28;20469;-66
2022/12/05 18:15:39;;;;;;;140.98;99.30;;;11.70;99.90;;;;;;5116248;28;20020;-65
2022/12/05 18:18:06;;;;;;;124.13;92.13;;;11.60;99.90;;;;;;5115805;28;20023;-65
2022/12/05 18:20:33;;;;;;;110.97;82.90;;;11.70;99.90;;;;;;5116224;28;20069;-65
2022/12/05 18:23:00;;;;;;;111.55;80.78;;;11.60;99.90;;;;;;5116085;28;20058;-65
2022/12/05 18:25:26;;;;;;;128.35;86.10;;;11.70;99.90;;;;;;5116336;28;20389;-65
2022/12/05 18:27:52;;;;;;;134.10;89.53;;;11.60;99.90;;;;;;5116237;28;20023;-65
2022/12/05 18:30:17;;;;;;;164.10;111.00;;;11.60;99.90;;;;;;5115829;28;20024;-65
2022/12/05 18:32:43;;;;;;;154.13;104.93;;;11.60;99.90;;;;;;5115769;28;20103;-65
2022/12/05 18:35:09;;;;;;;126.25;88.05;;;11.50;99.90;;;;;;5116039;28;20054;-65
2022/12/05 18:37:36;;;;;;;114.47;84.50;;;11.50;99.90;;;;;;5116090;28;20545;-64
2022/12/05 18:40:04;;;;;;;166.57;117.57;;;11.50;99.90;;;;;;5115899;28;20354;-65
2022/12/05 18:42:30;;;;;;;149.10;110.75;;;11.40;99.90;;;;;;5115872;28;20481;-64
2022/12/05 18:44:56;;;;;;;140.77;104.85;;;11.30;99.90;;;;;;5115563;28;20026;-65
2022/12/05 18:47:23;;;;;;;135.15;100.47;;;11.20;99.90;;;;;;5115682;28;20031;-66
2022/12/05 18:49:49;;;;;;;173.88;116.00;;;11.10;99.90;;;;;;5116030;28;20023;-65
2022/12/05 18:52:14;;;;;;;157.90;102.60;;;11.10;99.90;;;;;;5115817;28;20042;-65
2022/12/05 18:54:40;;;;;;;119.70;81.15;;;11.00;99.90;;;;;;5115547;28;20020;-65
2022/12/05 18:57:06;;;;;;;108.53;71.28;;;11.00;99.90;;;;;;5115713;28;20062;-65
2022/12/05 18:59:31;;;;;;;97.60;64.05;;;11.00;99.90;;;;;;5115309;28;20027;-65
2022/12/05 19:02:00;;;;;;;89.57;59.95;;;11.10;99.90;;;;;;5115550;28;20023;-65
2022/12/05 19:04:27;;;;;;;110.53;71.63;;;11.10;99.90;;;;;;5115415;28;20028;-65
2022/12/05 19:06:57;;;;;;;137.20;82.45;;;11.20;99.90;;;;;;5115593;27;20031;-65
2022/12/05 19:09:26;;;;;;;101.05;67.93;;;11.10;99.90;;;;;;5115318;28;20027;-65
2022/12/05 19:11:57;;;;;;;119.00;78.18;;;11.00;99.90;;;;;;5115318;28;20077;-65
2022/12/05 19:14:24;;;;;;;128.82;80.93;;;11.00;99.90;;;;;;5115289;28;20093;-65
2022/12/05 19:16:52;;;;;;;159.20;101.15;;;11.00;99.90;;;;;;5115146;28;20029;-65
2022/12/05 19:19:18;;;;;;;155.55;96.25;;;10.90;99.90;;;;;;5115276;28;20024;-65
2022/12/05 19:21:44;;;;;;;137.40;88.72;;;10.90;99.90;;;;;;5115186;28;20094;-65
2022/12/05 19:24:13;;;;;;;130.80;83.07;;;10.80;99.90;;;;;;5114874;28;20050;-65
2022/12/05 19:26:39;;;;;;;119.18;81.95;;;10.80;99.90;;;;;;5114891;28;20020;-65
2022/12/05 19:29:06;;;;;;;109.18;71.93;;;10.90;99.90;;;;;;5114662;28;20020;-65
2022/12/05 19:31:34;;;;;;;107.20;69.00;;;10.90;99.90;;;;;;5114358;28;20076;-66
2022/12/05 19:34:01;;;;;;;89.50;61.03;;;11.00;99.90;;;;;;5115178;28;20129;-65
2022/12/05 19:36:39;;;;;;;87.80;58.00;;;11.00;99.90;;;;;;5115120;28;20081;-65
2022/12/05 19:39:17;;;;;;;75.05;50.85;;;11.10;99.90;;;;;;5114628;28;20053;-65
2022/12/05 19:41:43;;;;;;;69.20;49.15;;;11.10;99.90;;;;;;5114565;28;20020;-65
2022/12/05 19:44:09;;;;;;;63.00;46.03;;;11.10;99.90;;;;;;5114595;28;20046;-65
2022/12/05 19:46:35;;;;;;;59.45;42.67;;;11.10;99.90;;;;;;5114444;28;20485;-65
2022/12/05 19:49:07;;;;;;;51.95;39.78;;;11.10;99.90;;;;;;5113326;28;20388;-66
2022/12/05 19:51:33;;;;;;;62.25;47.60;;;11.10;99.90;;;;;;5114491;28;20020;-65
2022/12/05 19:54:01;;;;;;;50.72;39.55;;;11.10;99.90;;;;;;5114640;28;20057;-64
2022/12/05 19:56:29;;;;;;;51.55;39.72;;;11.00;99.90;;;;;;5114396;28;20019;-65
2022/12/05 19:58:56;;;;;;;52.95;40.60;;;11.00;99.90;;;;;;5114386;28;20026;-65
2022/12/05 20:01:23;;;;;;;50.00;38.28;;;10.90;99.90;;;;;;5113538;28;20012;-65
2022/12/05 20:04:16;;;;;;;56.38;42.78;;;10.90;99.90;;;;;;5114095;28;20511;-65
2022/12/05 20:06:44;;;;;;;51.85;40.70;;;10.80;99.90;;;;;;5110725;28;20412;-65
2022/12/05 20:09:12;;;;;;;59.97;44.35;;;10.70;99.90;;;;;;5113378;28;20024;-65
2022/12/05 20:11:39;;;;;;;56.05;41.20;;;10.70;99.90;;;;;;5113278;28;20012;-65
2022/12/05 20:14:05;;;;;;;52.95;38.58;;;10.70;99.90;;;;;;5113849;28;20016;-65
2022/12/05 20:16:32;;;;;;;47.03;36.05;;;10.70;99.90;;;;;;5114064;28;20072;-65
2022/12/05 20:18:59;;;;;;;54.78;41.20;;;10.70;99.90;;;;;;5114036;28;20020;-65
2022/12/05 20:21:27;;;;;;;44.65;34.67;;;10.70;99.90;;;;;;5112279;28;20038;-66
2022/12/05 20:23:53;;;;;;;48.97;37.53;;;10.60;99.90;;;;;;5112496;28;20024;-66
2022/12/05 20:26:24;;;;;;;55.85;40.22;;;10.60;99.90;;;;;;5111994;28;20477;-65
2022/12/05 20:28:50;;;;;;;53.78;37.33;;;10.60;99.90;;;;;;5112864;28;20400;-65
2022/12/05 20:31:18;;;;;;;52.00;38.75;;;10.60;99.90;;;;;;5112547;27;20055;-65
2022/12/05 20:33:44;;;;;;;59.42;41.67;;;10.60;99.90;;;;;;5112956;28;20019;-65
2022/12/05 20:36:15;;;;;;;56.35;38.70;;;10.60;99.90;;;;;;5113667;28;20028;-65
2022/12/05 20:38:41;;;;;;;51.85;39.65;;;10.50;99.90;;;;;;5113850;28;20042;-65
2022/12/05 20:41:14;;;;;;;89.95;59.92;;;10.50;99.90;;;;;;5113385;28;20019;-66
2022/12/05 20:43:40;;;;;;;74.25;51.45;;;10.40;99.90;;;;;;5114187;28;20074;-65
2022/12/05 20:46:10;;;;;;;122.43;78.53;;;10.20;99.90;;;;;;5113435;28;20051;-65
2022/12/05 20:48:36;;;;;;;70.70;51.42;;;10.20;99.90;;;;;;5113726;28;20397;-65
2022/12/05 20:51:05;;;;;;;66.07;47.33;;;10.10;99.90;;;;;;5113707;28;20026;-65
2022/12/05 20:53:34;;;;;;;62.28;44.00;;;10.20;99.90;;;;;;5113725;28;20380;-66
2022/12/05 20:56:14;;;;;;;55.25;40.90;;;10.20;99.90;;;;;;5114057;28;20098;-65
2022/12/05 20:58:42;;;;;;;54.22;39.00;;;10.20;99.90;;;;;;5113758;28;20024;-65
2022/12/05 21:01:09;;;;;;;50.22;38.20;;;10.20;99.90;;;;;;5113548;28;20025;-65
2022/12/05 21:03:38;;;;;;;48.55;36.67;;;10.20;99.90;;;;;;5113559;28;20031;-65
2022/12/05 21:06:15;;;;;;;48.17;34.92;;;10.20;99.90;;;;;;5113553;28;20024;-65
2022/12/05 21:08:42;;;;;;;43.22;31.35;;;10.10;99.90;;;;;;5113368;28;20047;-64
2022/12/05 21:11:09;;;;;;;78.72;50.92;;;10.10;99.90;;;;;;5113637;28;20522;-64
2022/12/05 21:13:35;;;;;;;55.67;38.90;;;10.10;99.90;;;;;;5113441;28;20053;-65
2022/12/05 21:16:09;;;;;;;53.55;37.22;;;10.00;99.90;;;;;;5113505;28;20020;-65
2022/12/05 21:18:34;;;;;;;;;;;10.00;99.90;;;;;;5113909;28;20033;-64
2022/12/05 21:21:06;;;;;;;83.78;52.17;;;10.00;99.90;;;;;;5113284;28;19908;-64
2022/12/05 21:23:32;;;;;;;150.27;89.93;;;9.90;99.90;;;;;;5113150;28;20381;-65
2022/12/05 21:26:06;;;;;;;91.65;59.85;;;9.90;99.90;;;;;;5113238;28;20031;-64
2022/12/05 21:28:33;;;;;;;95.05;62.53;;;9.90;99.90;;;;;;5113302;28;20035;-66
2022/12/05 21:31:10;;;;;;;70.60;50.60;;;9.80;99.90;;;;;;5113347;28;20019;-65
2022/12/05 21:33:37;;;;;;;74.85;50.80;;;9.80;99.90;;;;;;5113226;28;20019;-65
2022/12/05 21:36:04;;;;;;;64.32;45.15;;;9.80;99.90;;;;;;5113298;28;20055;-65
2022/12/05 21:38:30;;;;;;;60.67;43.45;;;9.80;99.90;;;;;;5113500;28;20106;-66
2022/12/05 21:40:56;;;;;;;56.90;41.75;;;9.80;99.90;;;;;;5113071;28;20154;-65
2022/12/05 21:43:21;;;;;;;56.38;40.03;;;9.80;99.90;;;;;;5113241;28;20030;-65
2022/12/05 21:45:54;;;;;;;50.17;36.22;;;9.80;99.90;;;;;;5112855;28;20047;-65
2022/12/05 21:48:21;;;;;;;54.00;37.28;;;9.80;99.90;;;;;;5113106;28;20030;-65